Time;durP1;ratioP1;P1;durP2;ratioP2;P2;SDS_P1;SDS_P2;PMS_P1;PMS_P2;Temp;Humidity;BMP_temperature;BMP_pressure;BME280_temperature;BME280_humidity;BME280_pressure;Samples;Min_cycle;Max_cycle;Signal;HPM_P1;HPM_P2
2021/08/25 00:00:29;;;;;;;6.90;4.30;;;13.30;1.00;;;;;;6173519;23;20366;-82
2021/08/25 00:02:57;;;;;;;6.23;4.00;;;13.30;1.00;;;;;;6156989;23;20368;-81
2021/08/25 00:05:24;;;;;;;7.03;4.53;;;13.20;1.00;;;;;;6175762;23;20371;-82
2021/08/25 00:07:51;;;;;;;5.60;4.40;;;13.20;1.00;;;;;;6155569;23;20418;-83
2021/08/25 00:10:18;;;;;;;4.87;4.23;;;13.20;1.00;;;;;;6156693;23;20391;-81
2021/08/25 00:12:45;;;;;;;7.57;4.53;;;13.20;1.00;;;;;;6155193;23;20909;-82
2021/08/25 00:15:13;;;;;;;7.10;4.20;;;13.20;1.00;;;;;;6153155;23;20406;-82
2021/08/25 00:17:40;;;;;;;7.13;4.43;;;13.10;1.00;;;;;;6155496;23;20382;-82
2021/08/25 00:20:09;;;;;;;5.60;4.40;;;13.10;1.00;;;;;;6160330;23;20379;-83
2021/08/25 00:22:39;;;;;;;6.13;4.40;;;13.10;1.00;;;;;;6181867;23;20391;-81
2021/08/25 00:25:07;;;;;;;6.03;4.77;;;13.00;1.00;;;;;;6170325;23;20419;-82
2021/08/25 00:27:35;;;;;;;7.10;5.23;;;13.00;1.00;;;;;;6156259;23;20402;-82
2021/08/25 00:30:04;;;;;;;5.97;4.80;;;13.00;1.00;;;;;;6127895;23;20421;-82
2021/08/25 00:32:30;;;;;;;5.43;4.90;;;13.00;1.00;;;;;;6127951;23;20419;-81
2021/08/25 00:34:57;;;;;;;6.73;5.90;;;12.90;1.00;;;;;;6128550;23;20411;-81
2021/08/25 00:37:25;;;;;;;8.33;5.33;;;12.90;1.00;;;;;;6154074;23;20403;-81
2021/08/25 00:39:52;;;;;;;8.53;5.43;;;12.80;1.00;;;;;;6152595;23;20719;-82
2021/08/25 00:42:19;;;;;;;6.10;5.50;;;12.80;1.00;;;;;;6125852;23;20458;-82
2021/08/25 00:44:47;;;;;;;6.87;5.63;;;12.80;1.00;;;;;;6155744;23;20771;-82
2021/08/25 00:47:14;;;;;;;6.93;6.23;;;12.80;1.00;;;;;;6157576;23;20394;-82
2021/08/25 00:49:41;;;;;;;7.70;5.47;;;12.80;1.00;;;;;;6157880;23;20409;-81
2021/08/25 00:52:07;;;;;;;8.73;6.43;;;12.70;1.00;;;;;;6153467;23;20398;-81
2021/08/25 00:54:36;;;;;;;6.30;5.70;;;12.70;1.00;;;;;;6125745;23;20443;-81
2021/08/25 00:57:04;;;;;;;8.30;6.50;;;12.70;1.00;;;;;;6151743;23;20404;-82
2021/08/25 00:59:32;;;;;;;7.23;5.80;;;12.60;1.00;;;;;;6152585;23;20441;-81
2021/08/25 01:02:12;;;;;;;7.23;6.40;;;12.60;1.00;;;;;;6153675;23;20447;-82
2021/08/25 01:04:45;;;;;;;7.90;6.27;;;12.60;1.00;;;;;;6153557;23;20391;-82
2021/08/25 01:07:14;;;;;;;7.03;5.87;;;12.60;1.00;;;;;;6151156;23;20430;-82
2021/08/25 01:09:42;;;;;;;10.43;6.53;;;12.50;1.00;;;;;;6156373;23;21328;-81
2021/08/25 01:12:10;;;;;;;7.40;6.00;;;12.50;1.00;;;;;;6153220;23;20391;-82
2021/08/25 01:14:39;;;;;;;8.60;5.87;;;12.50;1.00;;;;;;6133565;23;20936;-81
2021/08/25 01:17:06;;;;;;;8.57;6.77;;;12.40;1.00;;;;;;6157183;23;20447;-82
2021/08/25 01:19:42;;;;;;;7.00;5.50;;;12.40;1.00;;;;;;6135188;23;20435;-82
2021/08/25 01:22:09;;;;;;;6.67;5.97;;;12.40;1.00;;;;;;6169529;23;20369;-82
2021/08/25 01:24:37;;;;;;;9.80;6.27;;;12.40;1.00;;;;;;6186180;23;20367;-82
2021/08/25 01:27:08;;;;;;;9.03;6.53;;;12.30;1.00;;;;;;6173609;23;20401;-81
2021/08/25 01:29:37;;;;;;;8.30;5.10;;;12.30;1.00;;;;;;6165271;23;20426;-81
2021/08/25 01:32:05;;;;;;;7.50;5.63;;;12.30;1.00;;;;;;6166203;23;21174;-81
2021/08/25 01:34:49;;;;;;;7.87;6.40;;;12.30;1.00;;;;;;6166076;23;20934;-80
2021/08/25 01:37:15;;;;;;;6.87;5.70;;;12.20;1.00;;;;;;6140340;23;20565;-81
2021/08/25 01:39:42;;;;;;;8.57;6.27;;;12.20;1.00;;;;;;6179337;23;20383;-82
2021/08/25 01:42:11;;;;;;;9.60;6.20;;;12.20;1.00;;;;;;6186674;23;20368;-82
2021/08/25 01:44:39;;;;;;;8.30;5.87;;;12.10;1.00;;;;;;6187233;23;20454;-81
2021/08/25 01:47:06;;;;;;;11.20;6.00;;;12.10;1.00;;;;;;6187106;23;20348;-83
2021/08/25 01:49:33;;;;;;;8.70;5.23;;;12.10;1.00;;;;;;6187030;23;20419;-83
2021/08/25 01:52:00;;;;;;;13.47;6.77;;;12.10;1.00;;;;;;6187134;23;20367;-82
2021/08/25 01:54:26;;;;;;;9.80;6.40;;;12.10;1.00;;;;;;6160871;23;20386;-82
2021/08/25 01:56:53;;;;;;;9.37;7.07;;;12.10;1.00;;;;;;6184800;23;20351;-82
2021/08/25 01:59:20;;;;;;;11.03;7.10;;;12.10;1.00;;;;;;6160954;23;20371;-83
2021/08/25 02:01:48;;;;;;;8.03;6.30;;;12.00;1.00;;;;;;6186603;23;20352;-82
2021/08/25 02:04:15;;;;;;;8.30;6.10;;;12.00;1.00;;;;;;6185832;23;20441;-82
2021/08/25 02:06:42;;;;;;;7.20;5.60;;;12.00;1.00;;;;;;6159571;23;20429;-83
2021/08/25 02:09:09;;;;;;;9.67;7.03;;;12.00;1.00;;;;;;6184419;23;20367;-83
2021/08/25 02:11:36;;;;;;;10.93;6.00;;;12.00;1.00;;;;;;6159867;23;20391;-84
2021/08/25 02:14:03;;;;;;;8.67;5.87;;;11.90;1.00;;;;;;6157321;23;20375;-83
2021/08/25 02:16:30;;;;;;;9.73;5.30;;;11.90;1.00;;;;;;6184071;23;20374;-82
2021/08/25 02:18:58;;;;;;;8.80;5.60;;;11.90;1.00;;;;;;6177135;23;20401;-82
2021/08/25 02:21:26;;;;;;;7.60;5.10;;;11.90;1.00;;;;;;6147563;23;20399;-83
2021/08/25 02:23:52;;;;;;;7.67;5.13;;;11.90;1.00;;;;;;6175018;23;20419;-82
2021/08/25 02:26:19;;;;;;;6.80;5.67;;;11.90;1.00;;;;;;6142228;23;20593;-82
2021/08/25 02:28:47;;;;;;;8.50;6.07;;;11.80;1.00;;;;;;6134304;23;20453;-82
2021/08/25 02:31:15;;;;;;;8.17;6.13;;;11.80;1.00;;;;;;6155388;23;20405;-82
2021/08/25 02:33:42;;;;;;;8.50;5.63;;;11.80;1.00;;;;;;6153790;23;20406;-81
2021/08/25 02:36:12;;;;;;;7.37;5.03;;;11.80;1.00;;;;;;6152029;23;20431;-81
2021/08/25 02:38:39;;;;;;;7.77;5.67;;;11.80;1.00;;;;;;6163436;23;20600;-82
2021/08/25 02:41:08;;;;;;;8.57;6.20;;;11.70;1.00;;;;;;6169707;23;20431;-82
2021/08/25 02:43:35;;;;;;;8.63;6.00;;;11.70;1.00;;;;;;6160260;23;20438;-82
2021/08/25 02:46:03;;;;;;;10.73;6.80;;;11.70;1.00;;;;;;6153329;23;20414;-82
2021/08/25 02:48:30;;;;;;;15.07;6.73;;;11.60;1.00;;;;;;6155807;23;20402;-82
2021/08/25 02:50:57;;;;;;;9.10;5.93;;;11.60;1.00;;;;;;6152753;23;21215;-81
2021/08/25 02:53:25;;;;;;;8.13;6.20;;;11.50;1.00;;;;;;6126548;23;20437;-82
2021/08/25 02:55:52;;;;;;;8.17;5.53;;;11.50;1.00;;;;;;6153870;23;20391;-82
2021/08/25 02:58:19;;;;;;;8.47;6.97;;;11.50;1.00;;;;;;6127233;23;20391;-82
2021/08/25 03:00:47;;;;;;;10.47;6.20;;;11.50;1.00;;;;;;6153819;23;20508;-82
2021/08/25 03:03:14;;;;;;;8.47;6.17;;;11.50;1.00;;;;;;6128889;23;20392;-82
2021/08/25 03:05:41;;;;;;;9.40;6.37;;;11.40;1.00;;;;;;6145798;23;20362;-81
2021/08/25 03:08:07;;;;;;;12.97;8.20;;;11.50;1.00;;;;;;6151935;23;20418;-83
2021/08/25 03:10:37;;;;;;;10.00;6.90;;;11.40;1.00;;;;;;6168036;23;20430;-82
2021/08/25 03:13:04;;;;;;;7.20;6.10;;;11.40;1.00;;;;;;6169181;23;20411;-83
2021/08/25 03:15:31;;;;;;;9.37;6.57;;;11.40;1.00;;;;;;6161477;23;20413;-83
2021/08/25 03:17:59;;;;;;;13.80;8.20;;;11.40;1.00;;;;;;6154698;23;20414;-83
2021/08/25 03:20:26;;;;;;;9.60;6.57;;;11.40;1.00;;;;;;6152705;23;20451;-82
2021/08/25 03:22:54;;;;;;;11.80;7.13;;;11.40;1.00;;;;;;6153184;23;20403;-81
2021/08/25 03:25:21;;;;;;;7.30;5.90;;;11.30;1.00;;;;;;6152152;23;20645;-82
2021/08/25 03:27:49;;;;;;;9.50;6.67;;;11.30;1.00;;;;;;6155626;23;20422;-82
2021/08/25 03:30:16;;;;;;;11.23;6.43;;;11.30;1.00;;;;;;6152906;23;20406;-83
2021/08/25 03:32:43;;;;;;;9.70;6.97;;;11.30;1.00;;;;;;6129520;23;21007;-82
2021/08/25 03:35:10;;;;;;;13.33;6.70;;;11.30;1.00;;;;;;6152502;23;21318;-83
2021/08/25 03:37:38;;;;;;;9.80;6.57;;;11.20;1.00;;;;;;6124727;23;20423;-83
2021/08/25 03:40:08;;;;;;;10.57;6.80;;;11.20;1.00;;;;;;6153944;23;20526;-82
2021/08/25 03:42:35;;;;;;;9.13;8.20;;;11.20;1.00;;;;;;6154707;23;20474;-82
2021/08/25 03:45:04;;;;;;;12.70;8.60;;;11.20;1.00;;;;;;6127128;23;20409;-83
2021/08/25 03:47:31;;;;;;;10.23;6.93;;;11.20;1.00;;;;;;6158260;23;21595;-81
2021/08/25 03:49:58;;;;;;;11.30;7.80;;;11.20;1.00;;;;;;6135122;23;20491;-82
2021/08/25 03:52:26;;;;;;;8.47;5.83;;;11.20;1.00;;;;;;6182184;23;20367;-82
2021/08/25 03:54:54;;;;;;;11.27;6.53;;;11.20;1.00;;;;;;6178214;23;20489;-82
2021/08/25 03:57:21;;;;;;;11.23;6.80;;;11.20;1.00;;;;;;6162043;23;20864;-81
2021/08/25 03:59:48;;;;;;;23.63;16.90;;;11.20;1.00;;;;;;6158169;23;20399;-82
2021/08/25 04:02:16;;;;;;;11.83;8.67;;;11.20;1.00;;;;;;6156766;23;20493;-81
2021/08/25 04:04:43;;;;;;;12.30;7.00;;;11.10;1.00;;;;;;6157956;23;21643;-83
2021/08/25 04:07:12;;;;;;;13.60;7.50;;;11.20;1.00;;;;;;6157357;23;20429;-82
2021/08/25 04:09:39;;;;;;;9.40;7.47;;;11.10;1.00;;;;;;6158650;23;21138;-82
2021/08/25 04:12:06;;;;;;;10.80;9.70;;;11.10;1.00;;;;;;6134813;23;20422;-83
2021/08/25 04:14:33;;;;;;;11.03;7.70;;;11.10;1.00;;;;;;6146925;23;20410;-82
2021/08/25 04:17:00;;;;;;;13.17;8.53;;;11.10;1.00;;;;;;6173567;23;21514;-81
2021/08/25 04:19:28;;;;;;;8.77;6.13;;;11.10;1.00;;;;;;6175524;23;20401;-82
2021/08/25 04:21:55;;;;;;;14.60;7.50;;;11.10;1.00;;;;;;6173858;23;20387;-81
2021/08/25 04:24:24;;;;;;;12.53;6.60;;;11.10;1.00;;;;;;6147885;23;20411;-82
2021/08/25 04:26:51;;;;;;;11.80;7.13;;;11.10;1.00;;;;;;6172130;23;20482;-80
2021/08/25 04:29:17;;;;;;;9.07;6.73;;;11.10;1.00;;;;;;6145403;23;20433;-83
2021/08/25 04:31:45;;;;;;;8.73;6.10;;;11.10;1.00;;;;;;6178049;23;20445;-83
2021/08/25 04:34:12;;;;;;;11.97;7.87;;;11.10;1.00;;;;;;6173109;23;20447;-81
2021/08/25 04:36:40;;;;;;;8.80;6.93;;;11.10;1.00;;;;;;6170362;23;20407;-82
2021/08/25 04:39:08;;;;;;;13.13;7.40;;;11.20;1.00;;;;;;6137907;23;20398;-82
2021/08/25 04:41:34;;;;;;;10.60;7.60;;;11.20;1.00;;;;;;6127990;23;20484;-78
2021/08/25 04:44:01;;;;;;;11.87;7.13;;;11.20;1.00;;;;;;6123320;23;20423;-77
2021/08/25 04:46:28;;;;;;;11.77;9.43;;;11.20;1.00;;;;;;6122354;23;21264;-77
2021/08/25 04:48:55;;;;;;;10.37;7.63;;;11.20;1.00;;;;;;6155516;23;20411;-78
2021/08/25 04:51:23;;;;;;;10.07;7.33;;;11.30;1.00;;;;;;6155579;23;20387;-81
2021/08/25 04:53:59;;;;;;;10.13;7.70;;;11.30;1.00;;;;;;6130809;23;20526;-82
2021/08/25 04:56:27;;;;;;;8.93;6.63;;;11.30;1.00;;;;;;6129146;23;20421;-84
2021/08/25 04:58:55;;;;;;;8.83;7.17;;;11.30;1.00;;;;;;6130222;23;20402;-84
2021/08/25 05:01:23;;;;;;;8.97;6.10;;;11.40;1.00;;;;;;6130854;23;20467;-84
2021/08/25 05:03:50;;;;;;;10.37;7.33;;;11.40;1.00;;;;;;6134360;23;20439;-86
2021/08/25 05:06:18;;;;;;;10.93;7.50;;;11.40;1.00;;;;;;6159815;23;20896;-84
2021/08/25 05:08:51;;;;;;;13.60;9.10;;;11.50;1.00;;;;;;6163903;23;21196;-83
2021/08/25 05:11:22;;;;;;;8.50;7.57;;;11.50;1.00;;;;;;6163576;23;20379;-84
2021/08/25 05:13:53;;;;;;;9.53;7.47;;;11.60;1.00;;;;;;6154614;23;20425;-86
2021/08/25 05:16:23;;;;;;;22.37;7.57;;;11.60;1.00;;;;;;6185598;23;20406;-86
2021/08/25 05:18:56;;;;;;;12.50;9.27;;;11.80;1.00;;;;;;6177672;23;20395;-84
2021/08/25 05:21:27;;;;;;;7.87;6.40;;;11.80;1.00;;;;;;6125530;23;20399;-85
2021/08/25 05:23:58;;;;;;;15.17;8.07;;;11.90;1.00;;;;;;6172918;23;20398;-85
2021/08/25 05:26:27;;;;;;;12.80;8.70;;;12.00;1.00;;;;;;6164042;23;20434;-84
2021/08/25 05:28:56;;;;;;;11.47;8.60;;;12.10;1.00;;;;;;6134992;23;20403;-83
2021/08/25 05:31:25;;;;;;;7.40;5.90;;;12.20;1.00;;;;;;6140405;23;20403;-83
2021/08/25 05:33:56;;;;;;;11.60;7.70;;;12.30;1.00;;;;;;6157924;23;20403;-83
2021/08/25 05:36:26;;;;;;;9.77;7.30;;;12.30;1.00;;;;;;6159650;23;20459;-83
2021/08/25 05:38:56;;;;;;;10.10;6.50;;;12.40;1.00;;;;;;6138409;23;20407;-83
2021/08/25 05:41:24;;;;;;;8.30;6.23;;;12.50;1.00;;;;;;6166533;23;20359;-83
2021/08/25 05:44:04;;;;;;;11.60;7.47;;;12.60;1.00;;;;;;6165652;23;20403;-84
2021/08/25 05:46:39;;;;;;;9.60;8.27;;;12.70;1.00;;;;;;6165530;23;20960;-85
2021/08/25 05:49:09;;;;;;;9.20;7.17;;;12.90;1.00;;;;;;6137244;23;20415;-85
2021/08/25 05:51:40;;;;;;;14.70;8.47;;;13.00;1.00;;;;;;6139157;23;20398;-84
2021/08/25 05:54:09;;;;;;;13.43;10.00;;;13.10;1.00;;;;;;6160513;23;20948;-84
2021/08/25 05:56:37;;;;;;;7.47;6.47;;;13.30;1.00;;;;;;6161969;23;20387;-84
2021/08/25 05:59:07;;;;;;;10.13;6.47;;;13.40;1.00;;;;;;6138232;23;20395;-84
2021/08/25 06:01:34;;;;;;;8.20;5.50;;;13.50;1.00;;;;;;6179685;23;20360;-84
2021/08/25 06:04:03;;;;;;;8.50;5.60;;;13.70;1.00;;;;;;6178527;23;20399;-84
2021/08/25 06:06:34;;;;;;;9.50;6.10;;;13.80;1.00;;;;;;6160428;23;20425;-86
2021/08/25 06:09:05;;;;;;;9.53;6.67;;;14.00;1.00;;;;;;6161025;23;20383;-84
2021/08/25 06:11:36;;;;;;;10.40;6.13;;;14.20;1.00;;;;;;6160628;23;20393;-84
2021/08/25 06:14:08;;;;;;;7.13;5.67;;;14.40;1.00;;;;;;6133920;23;20530;-85
2021/08/25 06:16:38;;;;;;;8.13;6.10;;;14.60;1.00;;;;;;6161461;23;20538;-84
2021/08/25 06:19:08;;;;;;;8.50;5.53;;;14.70;1.00;;;;;;6134551;23;20462;-84
2021/08/25 06:21:35;;;;;;;8.40;5.93;;;14.80;1.00;;;;;;6169088;23;20398;-84
2021/08/25 06:24:08;;;;;;;7.80;4.90;;;15.00;1.00;;;;;;6147010;23;20360;-83
2021/08/25 06:26:35;;;;;;;9.80;5.67;;;15.10;1.00;;;;;;6180882;23;20363;-85
2021/08/25 06:29:02;;;;;;;8.70;5.63;;;15.30;1.00;;;;;;6186804;23;20387;-85
2021/08/25 06:31:29;;;;;;;8.53;5.73;;;15.40;1.00;;;;;;6161504;23;20364;-84
2021/08/25 06:33:58;;;;;;;8.67;6.23;;;15.50;1.00;;;;;;6185344;23;20403;-83
2021/08/25 06:36:25;;;;;;;8.50;6.17;;;15.60;1.00;;;;;;6182409;23;20383;-84
2021/08/25 06:38:52;;;;;;;7.97;5.50;;;15.70;1.00;;;;;;6168207;23;20372;-82
2021/08/25 06:41:19;;;;;;;7.13;5.00;;;15.80;1.00;;;;;;6167036;23;20406;-83
2021/08/25 06:43:46;;;;;;;8.30;6.30;;;15.90;1.00;;;;;;6139075;23;20395;-83
2021/08/25 06:46:13;;;;;;;12.10;6.13;;;16.10;1.00;;;;;;6164984;23;20376;-83
2021/08/25 06:48:41;;;;;;;16.80;11.77;;;16.20;1.00;;;;;;6166958;23;20405;-85
2021/08/25 06:51:09;;;;;;;10.33;6.80;;;16.40;1.00;;;;;;6143713;23;21268;-84
2021/08/25 06:53:36;;;;;;;7.33;5.87;;;16.50;1.00;;;;;;6171209;23;20860;-84
2021/08/25 06:56:04;;;;;;;7.00;5.50;;;16.60;1.00;;;;;;6144978;23;20484;-82
2021/08/25 06:58:31;;;;;;;6.03;4.90;;;16.60;1.00;;;;;;6172953;23;20361;-86
2021/08/25 07:01:00;;;;;;;6.53;5.30;;;16.60;1.00;;;;;;6175968;23;20382;-84
2021/08/25 07:03:29;;;;;;;12.93;6.17;;;16.70;1.00;;;;;;6162416;23;20354;-83
2021/08/25 07:05:55;;;;;;;9.30;6.23;;;16.80;1.00;;;;;;6161918;23;20397;-83
2021/08/25 07:08:24;;;;;;;14.00;11.80;;;16.90;1.00;;;;;;6188255;23;21041;-82
2021/08/25 07:10:51;;;;;;;7.17;5.03;;;17.00;1.00;;;;;;6187030;23;20378;-82
2021/08/25 07:13:18;;;;;;;6.40;4.50;;;17.20;1.00;;;;;;6186548;23;20353;-82
2021/08/25 07:15:45;;;;;;;7.87;6.03;;;17.30;1.00;;;;;;6160799;23;20399;-82
2021/08/25 07:18:12;;;;;;;7.93;4.63;;;17.40;1.00;;;;;;6187930;23;20405;-85
2021/08/25 07:20:39;;;;;;;5.53;4.00;;;17.60;1.00;;;;;;6186135;23;20481;-83
2021/08/25 07:23:08;;;;;;;7.50;4.23;;;17.60;1.00;;;;;;6185703;23;20402;-84
2021/08/25 07:25:36;;;;;;;6.90;4.50;;;17.70;1.00;;;;;;6184566;23;20489;-84
2021/08/25 07:28:03;;;;;;;8.17;5.10;;;17.70;1.00;;;;;;6186397;23;20367;-84
2021/08/25 07:30:30;;;;;;;6.50;3.70;;;17.90;1.00;;;;;;6162151;23;20369;-82
2021/08/25 07:32:57;;;;;;;9.53;4.00;;;18.00;1.00;;;;;;6188433;23;20394;-83
2021/08/25 07:35:25;;;;;;;31.57;27.17;;;18.00;1.00;;;;;;6188149;23;20401;-84
2021/08/25 07:37:54;;;;;;;7.50;5.07;;;18.10;1.00;;;;;;6181754;23;20371;-84
2021/08/25 07:42:58;;;;;;;4.63;3.67;;;18.50;1.00;;;;;;6179464;23;20449;-85
2021/08/25 07:45:26;;;;;;;7.03;3.90;;;18.60;1.00;;;;;;6183425;23;20409;-85
2021/08/25 07:47:55;;;;;;;5.67;3.80;;;18.80;1.00;;;;;;6185396;23;20362;-85
2021/08/25 07:50:22;;;;;;;6.57;5.20;;;18.90;1.00;;;;;;6184962;23;20359;-83
2021/08/25 07:52:50;;;;;;;6.10;3.73;;;18.90;1.00;;;;;;6185288;23;20383;-86
2021/08/25 07:55:18;;;;;;;5.43;3.77;;;18.90;1.00;;;;;;6183493;23;20414;-86
2021/08/25 07:57:45;;;;;;;5.10;3.90;;;19.00;1.00;;;;;;6184730;23;20363;-85
2021/08/25 08:00:20;;;;;;;5.23;3.47;;;19.10;1.00;;;;;;6184684;23;20367;-87
2021/08/25 08:02:50;;;;;;;5.77;3.57;;;19.20;1.00;;;;;;6184980;23;20378;-84
2021/08/25 08:05:18;;;;;;;4.60;3.70;;;19.30;1.00;;;;;;6185087;23;20390;-84
2021/08/25 08:07:47;;;;;;;10.43;3.83;;;19.30;1.00;;;;;;6181319;23;20340;-85
2021/08/25 08:10:17;;;;;;;6.53;3.67;;;19.30;1.00;;;;;;6175483;23;20429;-84
2021/08/25 08:12:44;;;;;;;5.73;3.20;;;19.30;1.00;;;;;;6170889;23;20445;-84
2021/08/25 08:15:17;;;;;;;5.63;3.90;;;19.50;1.00;;;;;;6175066;23;20427;-85
2021/08/25 08:17:46;;;;;;;5.83;3.73;;;19.60;1.00;;;;;;6177372;23;20419;-84
2021/08/25 08:20:14;;;;;;;6.07;3.93;;;19.80;1.00;;;;;;6182503;23;20455;-85
2021/08/25 08:22:44;;;;;;;6.47;3.23;;;19.90;1.00;;;;;;6181143;23;20366;-84
2021/08/25 08:25:12;;;;;;;4.10;3.27;;;19.90;1.00;;;;;;6174078;23;20454;-85
2021/08/25 08:31:31;;;;;;;4.93;3.70;;;20.10;1.00;;;;;;6186260;23;20457;-85
2021/08/25 08:34:48;;;;;;;7.57;3.17;;;20.20;1.00;;;;;;6200948;22;20367;-84
2021/08/25 08:37:42;;;;;;;4.40;3.73;;;20.20;1.00;;;;;;6201242;22;20386;-84
2021/08/25 08:40:52;;;;;;;5.70;3.20;;;20.30;1.00;;;;;;6177809;23;20448;-85
2021/08/25 08:50:18;;;;;;;5.40;3.47;;;20.60;1.00;;;;;;6200230;22;20403;-83
2021/08/25 08:52:56;;;;;;;6.67;3.90;;;20.80;1.00;;;;;;6178774;23;20418;-86
2021/08/25 08:55:24;;;;;;;4.73;3.20;;;21.00;1.00;;;;;;6175589;23;20390;-84
2021/08/25 09:00:53;;;;;;;4.70;3.60;;;21.10;1.00;;;;;;6185180;23;20442;-81
2021/08/25 09:03:31;;;;;;;4.80;3.07;;;21.10;1.00;;;;;;6187921;23;21598;-79
2021/08/25 09:06:08;;;;;;;5.03;3.00;;;21.10;1.00;;;;;;6161502;23;20430;-80
2021/08/25 09:08:45;;;;;;;5.27;3.20;;;21.10;1.00;;;;;;6165487;23;20404;-80
2021/08/25 09:11:21;;;;;;;4.63;2.97;;;21.00;1.00;;;;;;6183118;23;20418;-80
2021/08/25 09:17:04;;;;;;;4.60;3.00;;;20.90;1.00;;;;;;6181316;23;20454;-80
2021/08/25 09:19:42;;;;;;;6.53;3.47;;;20.70;1.00;;;;;;6172891;23;20408;-80
2021/08/25 09:22:20;;;;;;;3.77;3.20;;;20.70;1.00;;;;;;6192137;23;20395;-77
2021/08/25 09:24:49;;;;;;;7.73;4.17;;;20.60;1.00;;;;;;6192682;23;20589;-79
2021/08/25 09:27:17;;;;;;;5.23;3.87;;;20.60;1.00;;;;;;6182045;23;20502;-80
2021/08/25 09:29:54;;;;;;;4.53;3.83;;;20.60;1.00;;;;;;6184357;23;20418;-78
2021/08/25 09:32:22;;;;;;;5.80;5.13;;;20.70;1.00;;;;;;6194272;23;20352;-78
2021/08/25 09:34:55;;;;;;;5.20;3.20;;;20.60;1.00;;;;;;6200868;23;20391;-80
2021/08/25 09:37:25;;;;;;;5.10;3.73;;;20.50;1.00;;;;;;6186619;23;20479;-79
2021/08/25 09:39:53;;;;;;;4.13;3.30;;;20.50;1.00;;;;;;6182617;23;20366;-78
2021/08/25 09:42:22;;;;;;;6.20;3.87;;;20.40;1.00;;;;;;6181274;23;20419;-78
2021/08/25 09:45:01;;;;;;;6.17;3.90;;;20.40;1.00;;;;;;6181611;23;20438;-78
2021/08/25 09:47:49;;;;;;;8.27;4.40;;;20.40;1.00;;;;;;6183810;23;20398;-79
2021/08/25 09:50:17;;;;;;;6.43;4.27;;;20.30;1.00;;;;;;6186572;23;20375;-79
2021/08/25 09:52:46;;;;;;;5.40;4.20;;;20.40;1.00;;;;;;6185025;23;21212;-79
2021/08/25 09:55:14;;;;;;;5.97;3.90;;;20.40;1.00;;;;;;6158695;23;20485;-80
2021/08/25 09:57:42;;;;;;;5.60;3.83;;;20.40;1.00;;;;;;6182952;23;20417;-79
2021/08/25 10:00:12;;;;;;;4.13;2.97;;;20.40;1.00;;;;;;6181953;23;20399;-79
2021/08/25 10:02:40;;;;;;;5.57;3.90;;;20.30;1.00;;;;;;6178545;23;20744;-78
2021/08/25 10:05:08;;;;;;;4.50;3.53;;;20.20;1.00;;;;;;6179354;23;21098;-79
2021/08/25 10:07:35;;;;;;;5.60;4.00;;;19.90;1.00;;;;;;6180245;23;20414;-80
2021/08/25 10:10:04;;;;;;;5.83;3.77;;;19.90;1.00;;;;;;6179722;23;20856;-79
2021/08/25 10:12:31;;;;;;;4.60;3.50;;;19.70;1.00;;;;;;6180344;23;20827;-79
2021/08/25 10:14:58;;;;;;;5.33;3.27;;;19.60;1.00;;;;;;6182664;23;20417;-80
2021/08/25 10:17:41;;;;;;;7.50;3.60;;;19.60;1.00;;;;;;6182692;23;20760;-78
2021/08/25 10:20:34;;;;;;;5.03;3.67;;;19.70;1.00;;;;;;6166221;23;20367;-78
2021/08/25 10:23:02;;;;;;;4.90;3.60;;;19.70;1.00;;;;;;6163866;23;20378;-79
2021/08/25 10:25:31;;;;;;;5.13;3.23;;;19.70;1.00;;;;;;6183758;23;20390;-79
2021/08/25 10:28:06;;;;;;;7.63;4.43;;;19.60;1.00;;;;;;6181921;23;20440;-79
2021/08/25 10:30:55;;;;;;;5.80;3.70;;;19.50;1.00;;;;;;6186088;23;20536;-79
2021/08/25 10:33:24;;;;;;;8.90;5.27;;;19.50;1.00;;;;;;6192627;23;20402;-79
2021/08/25 10:35:52;;;;;;;5.23;4.40;;;19.50;1.00;;;;;;6201468;23;21145;-79
2021/08/25 10:38:24;;;;;;;7.33;3.73;;;19.50;1.00;;;;;;6208634;22;20377;-82
2021/08/25 10:40:55;;;;;;;6.17;4.07;;;19.50;1.00;;;;;;6205764;23;20365;-82
2021/08/25 10:43:41;;;;;;;5.73;3.70;;;19.50;1.00;;;;;;6198658;23;20408;-78
2021/08/25 10:46:09;;;;;;;6.03;3.60;;;19.40;1.00;;;;;;6168374;23;21060;-79
2021/08/25 10:48:54;;;;;;;5.43;3.27;;;19.40;1.00;;;;;;6202837;23;20422;-79
2021/08/25 10:51:41;;;;;;;4.83;4.13;;;19.30;1.00;;;;;;6206240;23;20445;-79
2021/08/25 10:54:10;;;;;;;5.20;3.30;;;19.40;1.00;;;;;;6213473;22;20406;-78
2021/08/25 10:56:48;;;;;;;8.50;4.27;;;19.40;1.00;;;;;;6212376;22;20374;-78
2021/08/25 10:59:20;;;;;;;6.33;4.10;;;19.60;1.00;;;;;;6213368;22;20362;-78
2021/08/25 11:01:48;;;;;;;4.87;3.63;;;19.60;1.00;;;;;;6214250;22;20399;-78
2021/08/25 11:04:16;;;;;;;5.67;3.80;;;19.50;1.00;;;;;;6212502;22;20365;-79
2021/08/25 11:06:50;;;;;;;5.80;3.40;;;19.60;1.00;;;;;;6208653;22;20378;-77
2021/08/25 11:09:22;;;;;;;4.67;3.60;;;19.70;1.00;;;;;;6210741;22;20384;-78
2021/08/25 11:11:52;;;;;;;5.40;3.87;;;20.00;1.00;;;;;;6209732;22;20381;-77
2021/08/25 11:14:28;;;;;;;7.00;4.40;;;20.20;1.00;;;;;;6209806;22;20884;-79
2021/08/25 11:16:57;;;;;;;6.63;4.00;;;20.80;1.00;;;;;;6209965;22;20379;-77
2021/08/25 11:19:31;;;;;;;5.67;4.10;;;21.40;1.00;;;;;;6209203;22;20376;-81
2021/08/25 11:22:02;;;;;;;5.73;3.40;;;21.90;1.00;;;;;;6209559;22;20369;-84
2021/08/25 11:24:35;;;;;;;5.90;3.47;;;22.00;1.00;;;;;;6184115;23;20398;-81
2021/08/25 11:27:16;;;;;;;4.87;3.20;;;22.00;1.00;;;;;;6209938;22;20387;-81
2021/08/25 11:29:43;;;;;;;4.30;3.40;;;22.60;1.00;;;;;;6182465;23;20373;-81
2021/08/25 11:32:10;;;;;;;4.00;3.07;;;23.70;1.00;;;;;;6208900;22;20400;-80
2021/08/25 11:34:43;;;;;;;5.83;3.60;;;24.70;1.00;;;;;;6206503;22;20369;-81
2021/08/25 11:37:11;;;;;;;7.37;4.00;;;25.70;1.00;;;;;;6179905;23;20397;-80
2021/08/25 11:39:38;;;;;;;4.07;3.30;;;27.20;1.00;;;;;;6206181;22;20480;-82
2021/08/25 11:42:06;;;;;;;5.23;3.47;;;27.60;1.00;;;;;;6178830;23;20462;-81
2021/08/25 11:44:38;;;;;;;4.63;3.70;;;28.00;1.00;;;;;;6197289;22;20381;-82
2021/08/25 11:47:19;;;;;;;4.67;3.30;;;28.60;1.00;;;;;;6153194;23;20416;-81
2021/08/25 11:49:49;;;;;;;4.60;3.30;;;30.10;1.00;;;;;;6152796;23;20412;-81
2021/08/25 11:52:18;;;;;;;4.70;3.90;;;30.70;1.00;;;;;;6154951;23;20501;-82
2021/08/25 11:54:47;;;;;;;5.27;4.07;;;31.40;1.00;;;;;;6153764;23;20429;-82
2021/08/25 11:57:17;;;;;;;6.43;5.73;;;32.20;1.00;;;;;;6183882;23;20401;-82
2021/08/25 11:59:56;;;;;;;5.53;3.10;;;33.10;1.00;;;;;;6156224;23;20493;-81
2021/08/25 12:02:24;;;;;;;7.10;3.50;;;33.50;1.00;;;;;;6180448;23;20410;-81
2021/08/25 12:04:54;;;;;;;4.63;3.30;;;33.70;1.00;;;;;;6169797;23;20390;-82
2021/08/25 12:07:21;;;;;;;3.93;3.13;;;33.20;1.00;;;;;;6195413;23;20366;-81
2021/08/25 12:09:53;;;;;;;5.40;2.93;;;33.40;1.00;;;;;;6181484;23;20426;-82
2021/08/25 12:12:24;;;;;;;5.10;3.57;;;34.10;1.00;;;;;;6157246;23;20417;-82
2021/08/25 12:15:28;;;;;;;3.83;3.43;;;34.70;1.00;;;;;;6153693;23;20413;-82
2021/08/25 12:18:26;;;;;;;3.90;3.27;;;33.90;1.00;;;;;;6160719;23;20505;-83
2021/08/25 12:21:12;;;;;;;5.90;5.30;;;33.40;1.00;;;;;;6203514;22;20401;-85
2021/08/25 12:27:08;;;;;;;4.20;3.40;;;34.30;1.00;;;;;;6154345;23;20407;-82
2021/08/25 12:30:09;;;;;;;4.80;3.13;;;34.20;1.00;;;;;;6155427;23;21671;-84
2021/08/25 12:32:53;;;;;;;5.87;4.50;;;34.20;1.00;;;;;;6149603;23;20419;-84
2021/08/25 12:35:34;;;;;;;8.30;3.47;;;33.00;1.00;;;;;;6156070;23;20408;-83
2021/08/25 12:38:34;;;;;;;4.83;4.00;;;31.10;1.00;;;;;;6151192;23;21032;-83
2021/08/25 12:45:09;;;;;;;5.27;4.40;;;28.50;1.00;;;;;;6124337;23;20433;-82
2021/08/25 12:51:45;;;;;;;4.43;3.27;;;29.10;1.00;;;;;;6143049;23;20412;-83
2021/08/25 12:55:05;;;;;;;6.27;3.97;;;30.00;1.00;;;;;;6150105;23;20399;-83
2021/08/25 12:57:35;;;;;;;7.10;4.43;;;31.40;1.00;;;;;;6154302;23;20468;-82
2021/08/25 13:00:11;;;;;;;5.27;3.83;;;31.90;1.00;;;;;;6153079;23;21195;-84
2021/08/25 13:02:42;;;;;;;5.20;4.40;;;32.00;1.00;;;;;;6154453;23;20412;-82
2021/08/25 13:16:54;;;;;;;4.60;3.50;;;30.10;1.00;;;;;;6077663;23;20426;-84
2021/08/25 13:19:21;;;;;;;5.40;3.37;;;30.80;1.00;;;;;;6156650;23;20387;-79
2021/08/25 13:21:48;;;;;;;4.00;3.47;;;31.00;1.00;;;;;;6158365;23;21318;-82
2021/08/25 13:24:15;;;;;;;5.00;3.87;;;31.50;1.00;;;;;;6152712;23;20406;-81
2021/08/25 13:26:42;;;;;;;6.00;3.60;;;32.10;1.00;;;;;;6151794;23;21056;-81
2021/08/25 13:29:09;;;;;;;4.60;3.60;;;31.90;1.00;;;;;;6154451;23;21423;-80
2021/08/25 13:31:36;;;;;;;5.30;3.50;;;31.20;1.00;;;;;;6157868;23;20388;-81
2021/08/25 13:34:04;;;;;;;4.57;3.53;;;30.60;1.00;;;;;;6154261;23;20391;-82
2021/08/25 13:36:30;;;;;;;4.90;3.60;;;31.00;1.00;;;;;;6151167;23;21573;-80
2021/08/25 13:38:57;;;;;;;4.93;3.70;;;31.60;1.00;;;;;;6149096;23;21712;-81
2021/08/25 13:41:24;;;;;;;4.60;3.70;;;31.20;1.00;;;;;;6147325;23;21333;-81
2021/08/25 13:43:51;;;;;;;3.33;3.03;;;30.70;1.00;;;;;;6148360;23;20419;-81
2021/08/25 13:46:18;;;;;;;5.53;3.30;;;29.60;1.00;;;;;;6151829;23;20464;-79
2021/08/25 13:48:44;;;;;;;4.70;4.07;;;28.70;1.00;;;;;;6147210;23;20411;-80
2021/08/25 13:51:13;;;;;;;5.03;3.27;;;27.70;1.00;;;;;;6149104;23;20484;-78
2021/08/25 13:53:40;;;;;;;5.27;3.67;;;27.10;1.00;;;;;;6150709;23;21028;-82